sensor_id;sensor_type;location;lat;lon;timestamp;pressure;altitude;pressure_sealevel;temperature;humidity
48200;BME280;33990;44.602;10.976;2024-02-23T00:00:45;99672.81;;;20.79;46.55
48200;BME280;33990;44.602;10.976;2024-02-23T00:03:12;99678.19;;;20.79;46.50
48200;BME280;33990;44.602;10.976;2024-02-23T00:05:39;99658.53;;;20.79;46.42
48200;BME280;33990;44.602;10.976;2024-02-23T00:08:07;99646.91;;;20.78;46.54
48200;BME280;33990;44.602;10.976;2024-02-23T00:10:34;99623.72;;;20.77;46.42
48200;BME280;33990;44.602;10.976;2024-02-23T00:13:02;99620.19;;;20.77;46.33
48200;BME280;33990;44.602;10.976;2024-02-23T00:15:29;99624.53;;;20.78;46.24
48200;BME280;33990;44.602;10.976;2024-02-23T00:17:57;99620.19;;;20.77;46.19
48200;BME280;33990;44.602;10.976;2024-02-23T00:20:24;99612.09;;;20.77;46.17
48200;BME280;33990;44.602;10.976;2024-02-23T00:22:52;99612.09;;;20.77;46.11
48200;BME280;33990;44.602;10.976;2024-02-23T00:25:20;99600.50;;;20.76;46.04
48200;BME280;33990;44.602;10.976;2024-02-23T00:27:47;99597.81;;;20.76;46.14
48200;BME280;33990;44.602;10.976;2024-02-23T00:30:15;99597.81;;;20.76;46.13
48200;BME280;33990;44.602;10.976;2024-02-23T00:32:42;99591.44;;;20.77;46.04
48200;BME280;33990;44.602;10.976;2024-02-23T00:35:09;99574.47;;;20.77;46.07
48200;BME280;33990;44.602;10.976;2024-02-23T00:37:37;99573.63;;;20.76;45.86
48200;BME280;33990;44.602;10.976;2024-02-23T00:40:05;99567.22;;;20.77;46.04
48200;BME280;33990;44.602;10.976;2024-02-23T00:42:33;99562.88;;;20.76;46.01
48200;BME280;33990;44.602;10.976;2024-02-23T00:45:00;99565.72;;;20.74;45.92
48200;BME280;33990;44.602;10.976;2024-02-23T00:47:27;99555.81;;;20.75;45.81
48200;BME280;33990;44.602;10.976;2024-02-23T00:49:55;99564.72;;;20.76;45.73
48200;BME280;33990;44.602;10.976;2024-02-23T00:52:22;99554.97;;;20.74;45.82
48200;BME280;33990;44.602;10.976;2024-02-23T00:54:49;99552.28;;;20.74;45.79
48200;BME280;33990;44.602;10.976;2024-02-23T00:57:17;99537.97;;;20.74;45.80
48200;BME280;33990;44.602;10.976;2024-02-23T00:59:46;99550.44;;;20.75;45.68
48200;BME280;33990;44.602;10.976;2024-02-23T01:02:13;99536.16;;;20.74;45.70
48200;BME280;33990;44.602;10.976;2024-02-23T01:04:40;99533.47;;;20.74;45.73
48200;BME280;33990;44.602;10.976;2024-02-23T01:07:08;99530.78;;;20.74;45.68
48200;BME280;33990;44.602;10.976;2024-02-23T01:09:35;99521.84;;;20.74;45.66
48200;BME280;33990;44.602;10.976;2024-02-23T01:12:03;99514.63;;;20.74;45.60
48200;BME280;33990;44.602;10.976;2024-02-23T01:14:30;99508.38;;;20.74;45.44
48200;BME280;33990;44.602;10.976;2024-02-23T01:16:58;99498.66;;;20.73;45.35
48200;BME280;33990;44.602;10.976;2024-02-23T01:19:25;99505.69;;;20.74;45.41
48200;BME280;33990;44.602;10.976;2024-02-23T01:21:52;99499.50;;;20.73;45.49
48200;BME280;33990;44.602;10.976;2024-02-23T01:24:27;99490.59;;;20.73;45.37
48200;BME280;33990;44.602;10.976;2024-02-23T01:26:56;99488.72;;;20.73;45.41
48200;BME280;33990;44.602;10.976;2024-02-23T01:29:25;99482.50;;;20.73;45.33
48200;BME280;33990;44.602;10.976;2024-02-23T01:31:53;99483.53;;;20.72;45.47
48200;BME280;33990;44.602;10.976;2024-02-23T01:34:24;99469.06;;;20.73;45.35
48200;BME280;33990;44.602;10.976;2024-02-23T01:36:51;99456.63;;;20.72;45.41
48200;BME280;33990;44.602;10.976;2024-02-23T01:39:18;99463.88;;;20.71;45.39
48200;BME280;33990;44.602;10.976;2024-02-23T01:41:46;99451.25;;;20.72;45.43
48200;BME280;33990;44.602;10.976;2024-02-23T01:44:13;99446.06;;;20.70;45.34
48200;BME280;33990;44.602;10.976;2024-02-23T01:46:43;99450.25;;;20.73;45.30
48200;BME280;33990;44.602;10.976;2024-02-23T01:49:10;99443.19;;;20.72;45.41
48200;BME280;33990;44.602;10.976;2024-02-23T01:51:38;99427.25;;;20.70;45.27
48200;BME280;33990;44.602;10.976;2024-02-23T01:54:05;99431.59;;;20.71;45.18
48200;BME280;33990;44.602;10.976;2024-02-23T01:56:33;99425.41;;;20.71;45.29
48200;BME280;33990;44.602;10.976;2024-02-23T01:59:03;99417.13;;;20.72;45.18
48200;BME280;33990;44.602;10.976;2024-02-23T02:01:31;99402.03;;;20.71;45.20
48200;BME280;33990;44.602;10.976;2024-02-23T02:03:59;99400.16;;;20.72;45.16
48200;BME280;33990;44.602;10.976;2024-02-23T02:06:26;99385.88;;;20.71;45.15
48200;BME280;33990;44.602;10.976;2024-02-23T02:08:54;99394.78;;;20.72;45.22
48200;BME280;33990;44.602;10.976;2024-02-23T02:11:21;99392.94;;;20.72;45.29
48200;BME280;33990;44.602;10.976;2024-02-23T02:13:49;99391.25;;;20.71;45.05
48200;BME280;33990;44.602;10.976;2024-02-23T02:16:16;99395.63;;;20.72;45.09
48200;BME280;33990;44.602;10.976;2024-02-23T02:18:44;99392.94;;;20.72;44.91
48200;BME280;33990;44.602;10.976;2024-02-23T02:21:14;99384.03;;;20.72;45.12
48200;BME280;33990;44.602;10.976;2024-02-23T02:23:42;99382.19;;;20.72;45.07
48200;BME280;33990;44.602;10.976;2024-02-23T02:26:09;99360.66;;;20.72;45.23
48200;BME280;33990;44.602;10.976;2024-02-23T02:28:36;99350.94;;;20.71;45.17
48200;BME280;33990;44.602;10.976;2024-02-23T02:31:04;99346.19;;;20.73;45.25
48200;BME280;33990;44.602;10.976;2024-02-23T02:33:32;99349.06;;;20.72;45.31
48200;BME280;33990;44.602;10.976;2024-02-23T02:35:59;99347.22;;;20.72;45.17
48200;BME280;33990;44.602;10.976;2024-02-23T02:38:27;99343.69;;;20.72;45.29
48200;BME280;33990;44.602;10.976;2024-02-23T02:40:54;99342.66;;;20.73;45.30
48200;BME280;33990;44.602;10.976;2024-02-23T02:43:21;99343.50;;;20.73;45.15
48200;BME280;33990;44.602;10.976;2024-02-23T02:45:49;99352.41;;;20.74;45.13
48200;BME280;33990;44.602;10.976;2024-02-23T02:48:16;99346.19;;;20.73;45.14
48200;BME280;33990;44.602;10.976;2024-02-23T02:50:44;99342.66;;;20.73;45.25
48200;BME280;33990;44.602;10.976;2024-02-23T02:53:11;99330.91;;;20.74;45.01
48200;BME280;33990;44.602;10.976;2024-02-23T02:55:42;99317.44;;;20.74;45.26
48200;BME280;33990;44.602;10.976;2024-02-23T02:58:13;99311.22;;;20.73;45.25
48200;BME280;33990;44.602;10.976;2024-02-23T03:00:40;99313.91;;;20.73;45.25
48200;BME280;33990;44.602;10.976;2024-02-23T03:03:08;99305.03;;;20.73;45.35
48200;BME280;33990;44.602;10.976;2024-02-23T03:05:35;99317.44;;;20.74;45.45
48200;BME280;33990;44.602;10.976;2024-02-23T03:08:03;99295.09;;;20.73;45.40
48200;BME280;33990;44.602;10.976;2024-02-23T03:10:30;99287.03;;;20.73;45.39
48200;BME280;33990;44.602;10.976;2024-02-23T03:12:57;99284.34;;;20.73;45.22
48200;BME280;33990;44.602;10.976;2024-02-23T03:15:25;99276.28;;;20.73;45.32
48200;BME280;33990;44.602;10.976;2024-02-23T03:17:52;99275.44;;;20.73;45.21
48200;BME280;33990;44.602;10.976;2024-02-23T03:20:21;99271.91;;;20.72;45.17
48200;BME280;33990;44.602;10.976;2024-02-23T03:22:49;99260.13;;;20.73;45.28
48200;BME280;33990;44.602;10.976;2024-02-23T03:25:16;99268.22;;;20.73;45.04
48200;BME280;33990;44.602;10.976;2024-02-23T03:27:43;99258.47;;;20.72;45.09
48200;BME280;33990;44.602;10.976;2024-02-23T03:30:11;99264.03;;;20.71;44.93
48200;BME280;33990;44.602;10.976;2024-02-23T03:32:38;99265.72;;;20.72;44.79
48200;BME280;33990;44.602;10.976;2024-02-23T03:35:07;99273.97;;;20.70;44.76
48200;BME280;33990;44.602;10.976;2024-02-23T03:37:36;99280.19;;;20.71;44.78
48200;BME280;33990;44.602;10.976;2024-02-23T03:40:05;99272.94;;;20.71;44.86
48200;BME280;33990;44.602;10.976;2024-02-23T03:42:32;99265.91;;;20.70;44.67
48200;BME280;33990;44.602;10.976;2024-02-23T03:44:59;99270.41;;;20.70;44.83
48200;BME280;33990;44.602;10.976;2024-02-23T03:47:27;99262.34;;;20.70;44.78
48200;BME280;33990;44.602;10.976;2024-02-23T03:49:54;99256.13;;;20.69;44.79
48200;BME280;33990;44.602;10.976;2024-02-23T03:52:21;99249.75;;;20.70;44.63
48200;BME280;33990;44.602;10.976;2024-02-23T03:54:49;99247.06;;;20.70;44.61
48200;BME280;33990;44.602;10.976;2024-02-23T03:57:18;99247.06;;;20.70;44.69
48200;BME280;33990;44.602;10.976;2024-02-23T03:59:53;99237.16;;;20.71;44.62
48200;BME280;33990;44.602;10.976;2024-02-23T04:02:21;99245.22;;;20.71;44.68
48200;BME280;33990;44.602;10.976;2024-02-23T04:04:48;99234.47;;;20.71;44.86
48200;BME280;33990;44.602;10.976;2024-02-23T04:07:16;99226.41;;;20.71;44.68
48200;BME280;33990;44.602;10.976;2024-02-23T04:09:43;99214.81;;;20.70;44.68
48200;BME280;33990;44.602;10.976;2024-02-23T04:12:11;99209.44;;;20.70;44.71
48200;BME280;33990;44.602;10.976;2024-02-23T04:14:39;99210.25;;;20.71;44.70
48200;BME280;33990;44.602;10.976;2024-02-23T04:17:07;99214.81;;;20.70;44.80
48200;BME280;33990;44.602;10.976;2024-02-23T04:19:35;99202.19;;;20.71;44.83
48200;BME280;33990;44.602;10.976;2024-02-23T04:22:03;99205.72;;;20.71;44.68
48200;BME280;33990;44.602;10.976;2024-02-23T04:24:31;99197.81;;;20.70;44.64
48200;BME280;33990;44.602;10.976;2024-02-23T04:26:58;99186.06;;;20.71;44.71
48200;BME280;33990;44.602;10.976;2024-02-23T04:29:25;99186.06;;;20.71;44.71
48200;BME280;33990;44.602;10.976;2024-02-23T04:31:53;99183.38;;;20.71;44.59
48200;BME280;33990;44.602;10.976;2024-02-23T04:34:20;99175.28;;;20.71;44.67
48200;BME280;33990;44.602;10.976;2024-02-23T04:36:48;99178.81;;;20.71;44.59
48200;BME280;33990;44.602;10.976;2024-02-23T04:39:15;99167.38;;;20.69;44.51
48200;BME280;33990;44.602;10.976;2024-02-23T04:41:42;99166.41;;;20.70;44.60
48200;BME280;33990;44.602;10.976;2024-02-23T04:44:10;99165.53;;;20.70;44.50
48200;BME280;33990;44.602;10.976;2024-02-23T04:46:37;99167.22;;;20.71;44.50
48200;BME280;33990;44.602;10.976;2024-02-23T04:49:05;99155.66;;;20.70;44.63
48200;BME280;33990;44.602;10.976;2024-02-23T04:51:32;99159.31;;;20.69;44.53
48200;BME280;33990;44.602;10.976;2024-02-23T04:53:59;99140.50;;;20.69;44.53
48200;BME280;33990;44.602;10.976;2024-02-23T04:56:27;99138.66;;;20.70;44.56
48200;BME280;33990;44.602;10.976;2024-02-23T04:58:54;99122.72;;;20.68;44.47
48200;BME280;33990;44.602;10.976;2024-02-23T05:01:21;99111.94;;;20.68;44.55
48200;BME280;33990;44.602;10.976;2024-02-23T05:03:49;99120.00;;;20.68;44.50
48200;BME280;33990;44.602;10.976;2024-02-23T05:06:16;99116.50;;;20.68;44.31
48200;BME280;33990;44.602;10.976;2024-02-23T05:08:44;99112.97;;;20.67;44.29
48200;BME280;33990;44.602;10.976;2024-02-23T05:11:14;99106.56;;;20.68;44.40
48200;BME280;33990;44.602;10.976;2024-02-23T05:13:43;99082.38;;;20.68;44.47
48200;BME280;33990;44.602;10.976;2024-02-23T05:16:10;99080.72;;;20.67;44.37
48200;BME280;33990;44.602;10.976;2024-02-23T05:18:37;99084.22;;;20.68;44.44
48200;BME280;33990;44.602;10.976;2024-02-23T05:21:04;99085.06;;;20.68;44.37
48200;BME280;33990;44.602;10.976;2024-02-23T05:23:32;99082.56;;;20.67;44.31
48200;BME280;33990;44.602;10.976;2024-02-23T05:25:59;99083.41;;;20.67;44.33
48200;BME280;33990;44.602;10.976;2024-02-23T05:28:27;99091.47;;;20.67;44.31
48200;BME280;33990;44.602;10.976;2024-02-23T05:30:54;99097.00;;;20.66;44.27
48200;BME280;33990;44.602;10.976;2024-02-23T05:33:23;99095.19;;;20.66;44.32
48200;BME280;33990;44.602;10.976;2024-02-23T05:35:51;99084.44;;;20.66;44.38
48200;BME280;33990;44.602;10.976;2024-02-23T05:38:19;99096.84;;;20.67;44.43
48200;BME280;33990;44.602;10.976;2024-02-23T05:40:46;99096.84;;;20.67;44.37
48200;BME280;33990;44.602;10.976;2024-02-23T05:43:15;99091.47;;;20.67;44.25
48200;BME280;33990;44.602;10.976;2024-02-23T05:45:42;99095.81;;;20.68;44.34
48200;BME280;33990;44.602;10.976;2024-02-23T05:48:11;99076.16;;;20.68;44.28
48200;BME280;33990;44.602;10.976;2024-02-23T05:50:38;99058.16;;;20.68;44.26
48200;BME280;33990;44.602;10.976;2024-02-23T05:53:06;99059.19;;;20.67;44.34
48200;BME280;33990;44.602;10.976;2024-02-23T05:55:33;99075.97;;;20.69;44.40
48200;BME280;33990;44.602;10.976;2024-02-23T05:58:01;99074.31;;;20.68;44.24
48200;BME280;33990;44.602;10.976;2024-02-23T06:00:28;99052.59;;;20.70;44.33
48200;BME280;33990;44.602;10.976;2024-02-23T06:02:55;99057.16;;;20.69;44.26
48200;BME280;33990;44.602;10.976;2024-02-23T06:05:23;99050.09;;;20.68;44.24
48200;BME280;33990;44.602;10.976;2024-02-23T06:07:54;99039.34;;;20.68;44.30
48200;BME280;33990;44.602;10.976;2024-02-23T06:10:21;99023.22;;;20.68;44.26
48200;BME280;33990;44.602;10.976;2024-02-23T06:12:49;99024.88;;;20.69;44.19
48200;BME280;33990;44.602;10.976;2024-02-23T06:15:19;99036.47;;;20.70;44.26
48200;BME280;33990;44.602;10.976;2024-02-23T06:17:46;99046.38;;;20.69;44.40
48200;BME280;33990;44.602;10.976;2024-02-23T06:20:14;99050.78;;;20.70;44.35
48200;BME280;33990;44.602;10.976;2024-02-23T06:22:41;99048.09;;;20.70;44.36
48200;BME280;33990;44.602;10.976;2024-02-23T06:25:08;99053.47;;;20.70;44.31
48200;BME280;33990;44.602;10.976;2024-02-23T06:27:36;99041.84;;;20.70;44.36
48200;BME280;33990;44.602;10.976;2024-02-23T06:30:04;99037.31;;;20.70;44.29
48200;BME280;33990;44.602;10.976;2024-02-23T06:32:32;99035.63;;;20.69;43.74
48200;BME280;33990;44.602;10.976;2024-02-23T06:34:59;99037.22;;;20.64;43.25
48200;BME280;33990;44.602;10.976;2024-02-23T06:37:27;99022.66;;;20.58;42.95
48200;BME280;33990;44.602;10.976;2024-02-23T06:39:55;99023.03;;;20.55;43.05
48200;BME280;33990;44.602;10.976;2024-02-23T06:42:22;99006.63;;;20.50;42.88
48200;BME280;33990;44.602;10.976;2024-02-23T06:44:50;99008.97;;;20.45;42.75
48200;BME280;33990;44.602;10.976;2024-02-23T06:47:17;98993.41;;;20.40;42.73
48200;BME280;33990;44.602;10.976;2024-02-23T06:49:44;99010.06;;;20.36;42.95
48200;BME280;33990;44.602;10.976;2024-02-23T06:52:12;98998.84;;;20.32;42.85
48200;BME280;33990;44.602;10.976;2024-02-23T06:54:39;99013.13;;;20.33;43.12
48200;BME280;33990;44.602;10.976;2024-02-23T06:57:07;99001.91;;;20.29;43.32
48200;BME280;33990;44.602;10.976;2024-02-23T06:59:34;99005.44;;;20.30;43.11
48200;BME280;33990;44.602;10.976;2024-02-23T07:02:02;99009.78;;;20.31;43.32
48200;BME280;33990;44.602;10.976;2024-02-23T07:04:29;99024.69;;;20.33;43.29
48200;BME280;33990;44.602;10.976;2024-02-23T07:06:57;99022.31;;;20.38;43.41
48200;BME280;33990;44.602;10.976;2024-02-23T07:09:24;99021.94;;;20.41;43.61
48200;BME280;33990;44.602;10.976;2024-02-23T07:11:51;99016.41;;;20.43;43.33
48200;BME280;33990;44.602;10.976;2024-02-23T07:14:19;99012.50;;;20.45;43.35
48200;BME280;33990;44.602;10.976;2024-02-23T07:16:49;99016.69;;;20.48;43.33
48200;BME280;33990;44.602;10.976;2024-02-23T07:19:16;99019.19;;;20.49;43.59
48200;BME280;33990;44.602;10.976;2024-02-23T07:21:44;99026.91;;;20.53;43.76
48200;BME280;33990;44.602;10.976;2024-02-23T07:24:12;99046.19;;;20.56;43.88
48200;BME280;33990;44.602;10.976;2024-02-23T07:26:39;99052.25;;;20.58;44.08
48200;BME280;33990;44.602;10.976;2024-02-23T07:29:07;99061.59;;;20.62;44.25
48200;BME280;33990;44.602;10.976;2024-02-23T07:31:34;99067.06;;;20.69;44.27
48200;BME280;33990;44.602;10.976;2024-02-23T07:34:02;99072.91;;;20.72;44.37
48200;BME280;33990;44.602;10.976;2024-02-23T07:36:29;99078.97;;;20.74;44.37
48200;BME280;33990;44.602;10.976;2024-02-23T07:38:57;99070.50;;;20.78;44.36
48200;BME280;33990;44.602;10.976;2024-02-23T07:41:24;99056.69;;;20.81;44.23
48200;BME280;33990;44.602;10.976;2024-02-23T07:43:52;99059.84;;;20.84;44.17
48200;BME280;33990;44.602;10.976;2024-02-23T07:46:19;99053.28;;;20.87;44.24
48200;BME280;33990;44.602;10.976;2024-02-23T07:48:47;99043.81;;;20.91;44.24
48200;BME280;33990;44.602;10.976;2024-02-23T07:51:15;99044.66;;;20.91;44.26
48200;BME280;33990;44.602;10.976;2024-02-23T07:53:43;99057.91;;;20.93;44.17
48200;BME280;33990;44.602;10.976;2024-02-23T07:56:10;99050.66;;;20.93;44.26
48200;BME280;33990;44.602;10.976;2024-02-23T07:58:40;99054.38;;;20.92;44.33
48200;BME280;33990;44.602;10.976;2024-02-23T08:01:07;99056.25;;;20.92;44.42
48200;BME280;33990;44.602;10.976;2024-02-23T08:03:34;99048.53;;;20.89;44.50
48200;BME280;33990;44.602;10.976;2024-02-23T08:06:02;99046.88;;;20.88;44.80
48200;BME280;33990;44.602;10.976;2024-02-23T08:08:30;99049.72;;;20.86;44.83
48200;BME280;33990;44.602;10.976;2024-02-23T08:11:01;99056.13;;;20.85;44.79
48200;BME280;33990;44.602;10.976;2024-02-23T08:13:29;99070.63;;;20.84;44.84
48200;BME280;33990;44.602;10.976;2024-02-23T08:15:59;99082.22;;;20.85;44.96
48200;BME280;33990;44.602;10.976;2024-02-23T08:18:26;99093.16;;;20.83;45.05
48200;BME280;33990;44.602;10.976;2024-02-23T08:20:54;99104.91;;;20.82;44.98
48200;BME280;33990;44.602;10.976;2024-02-23T08:23:21;99108.47;;;20.83;45.03
48200;BME280;33990;44.602;10.976;2024-02-23T08:25:50;99113.84;;;20.83;45.17
48200;BME280;33990;44.602;10.976;2024-02-23T08:28:17;99112.97;;;20.82;45.08
48200;BME280;33990;44.602;10.976;2024-02-23T08:30:45;99107.44;;;20.84;45.18
48200;BME280;33990;44.602;10.976;2024-02-23T08:33:12;99113.66;;;20.84;45.29
48200;BME280;33990;44.602;10.976;2024-02-23T08:35:40;99110.13;;;20.84;45.37
48200;BME280;33990;44.602;10.976;2024-02-23T08:38:07;99110.28;;;20.82;45.39
48200;BME280;33990;44.602;10.976;2024-02-23T08:40:35;99122.91;;;20.82;45.39
48200;BME280;33990;44.602;10.976;2024-02-23T08:43:03;99120.41;;;20.80;45.36
48200;BME280;33990;44.602;10.976;2024-02-23T08:45:30;99117.91;;;20.79;45.30
48200;BME280;33990;44.602;10.976;2024-02-23T08:47:58;99123.47;;;20.77;45.27
48200;BME280;33990;44.602;10.976;2024-02-23T08:50:25;99111.88;;;20.77;45.35
48200;BME280;33990;44.602;10.976;2024-02-23T08:52:53;99126.34;;;20.76;45.38
48200;BME280;33990;44.602;10.976;2024-02-23T08:55:20;99126.50;;;20.74;45.18
48200;BME280;33990;44.602;10.976;2024-02-23T08:57:49;99125.69;;;20.73;45.16
48200;BME280;33990;44.602;10.976;2024-02-23T09:00:17;99140.16;;;20.72;45.25
48200;BME280;33990;44.602;10.976;2024-02-23T09:02:45;99151.94;;;20.71;45.21
48200;BME280;33990;44.602;10.976;2024-02-23T09:05:12;99161.84;;;20.71;45.48
48200;BME280;33990;44.602;10.976;2024-02-23T09:07:40;99165.53;;;20.70;45.41
48200;BME280;33990;44.602;10.976;2024-02-23T09:10:08;99167.38;;;20.69;45.36
48200;BME280;33990;44.602;10.976;2024-02-23T09:12:35;99172.78;;;20.69;45.33
48200;BME280;33990;44.602;10.976;2024-02-23T09:15:03;99182.69;;;20.69;45.41
48200;BME280;33990;44.602;10.976;2024-02-23T09:17:30;99196.81;;;20.71;45.35
48200;BME280;33990;44.602;10.976;2024-02-23T09:19:58;99220.19;;;20.70;45.50
48200;BME280;33990;44.602;10.976;2024-02-23T09:22:26;99212.13;;;20.70;45.38
48200;BME280;33990;44.602;10.976;2024-02-23T09:24:53;99217.50;;;20.70;45.43
48200;BME280;33990;44.602;10.976;2024-02-23T09:27:23;99225.56;;;20.70;45.55
48200;BME280;33990;44.602;10.976;2024-02-23T09:29:50;99222.88;;;20.70;45.49
48200;BME280;33990;44.602;10.976;2024-02-23T09:32:18;99239.00;;;20.70;45.21
48200;BME280;33990;44.602;10.976;2024-02-23T09:34:45;99214.81;;;20.70;45.51
48200;BME280;33990;44.602;10.976;2024-02-23T09:37:13;99208.56;;;20.70;45.62
48200;BME280;33990;44.602;10.976;2024-02-23T09:39:40;99207.72;;;20.69;45.56
48200;BME280;33990;44.602;10.976;2024-02-23T09:42:10;99210.59;;;20.68;45.64
48200;BME280;33990;44.602;10.976;2024-02-23T09:44:39;99207.09;;;20.67;45.58
48200;BME280;33990;44.602;10.976;2024-02-23T09:47:08;99215.78;;;20.69;45.69
48200;BME280;33990;44.602;10.976;2024-02-23T09:49:38;99215.16;;;20.67;45.85
48200;BME280;33990;44.602;10.976;2024-02-23T09:52:07;99233.16;;;20.67;45.92
48200;BME280;33990;44.602;10.976;2024-02-23T09:54:37;99231.28;;;20.67;45.74
48200;BME280;33990;44.602;10.976;2024-02-23T09:57:08;99229.63;;;20.66;45.79
48200;BME280;33990;44.602;10.976;2024-02-23T09:59:37;99221.56;;;20.66;45.88
48200;BME280;33990;44.602;10.976;2024-02-23T10:02:09;99211.78;;;20.65;45.80
48200;BME280;33990;44.602;10.976;2024-02-23T10:04:40;99211.78;;;20.65;46.04
48200;BME280;33990;44.602;10.976;2024-02-23T10:07:08;99219.22;;;20.63;46.03
48200;BME280;33990;44.602;10.976;2024-02-23T10:09:36;99238.69;;;20.65;45.95
48200;BME280;33990;44.602;10.976;2024-02-23T10:12:04;99255.84;;;20.64;46.08
48200;BME280;33990;44.602;10.976;2024-02-23T10:14:32;99258.53;;;20.64;46.04
48200;BME280;33990;44.602;10.976;2024-02-23T10:16:59;99242.41;;;20.64;45.98
48200;BME280;33990;44.602;10.976;2024-02-23T10:19:29;99262.06;;;20.65;46.04
48200;BME280;33990;44.602;10.976;2024-02-23T10:21:57;99270.94;;;20.65;46.08
48200;BME280;33990;44.602;10.976;2024-02-23T10:24:25;99276.53;;;20.64;46.10
48200;BME280;33990;44.602;10.976;2024-02-23T10:26:52;99271.13;;;20.64;46.01
48200;BME280;33990;44.602;10.976;2024-02-23T10:29:20;99277.34;;;20.64;46.13
48200;BME280;33990;44.602;10.976;2024-02-23T10:31:51;99268.44;;;20.64;46.13
48200;BME280;33990;44.602;10.976;2024-02-23T10:34:20;99265.75;;;20.64;46.09
48200;BME280;33990;44.602;10.976;2024-02-23T10:36:47;99266.78;;;20.63;45.99
48200;BME280;33990;44.602;10.976;2024-02-23T10:39:18;99270.31;;;20.63;46.14
48200;BME280;33990;44.602;10.976;2024-02-23T10:41:56;99270.31;;;20.63;46.07
48200;BME280;33990;44.602;10.976;2024-02-23T10:44:28;99274.84;;;20.63;46.04
48200;BME280;33990;44.602;10.976;2024-02-23T10:46:58;99277.34;;;20.64;46.12
48200;BME280;33990;44.602;10.976;2024-02-23T10:49:27;99273.81;;;20.64;46.20
48200;BME280;33990;44.602;10.976;2024-02-23T10:51:55;99267.63;;;20.63;46.25
48200;BME280;33990;44.602;10.976;2024-02-23T10:54:23;99263.06;;;20.64;46.27
48200;BME280;33990;44.602;10.976;2024-02-23T10:56:52;99266.59;;;20.64;46.17
48200;BME280;33990;44.602;10.976;2024-02-23T10:59:20;99252.50;;;20.62;46.17
48200;BME280;33990;44.602;10.976;2024-02-23T11:01:51;99254.16;;;20.63;46.15
48200;BME280;33990;44.602;10.976;2024-02-23T11:04:21;99251.47;;;20.63;46.27
48200;BME280;33990;44.602;10.976;2024-02-23T11:06:52;99246.09;;;20.63;46.17
48200;BME280;33990;44.602;10.976;2024-02-23T11:09:23;99251.47;;;20.63;46.24
48200;BME280;33990;44.602;10.976;2024-02-23T11:11:55;99245.09;;;20.64;46.16
48200;BME280;33990;44.602;10.976;2024-02-23T11:14:50;99250.66;;;20.63;46.19
48200;BME280;33990;44.602;10.976;2024-02-23T11:17:19;99259.34;;;20.65;46.17
48200;BME280;33990;44.602;10.976;2024-02-23T11:19:49;99245.09;;;20.64;46.27
48200;BME280;33990;44.602;10.976;2024-02-23T11:22:27;99261.22;;;20.64;46.11
48200;BME280;33990;44.602;10.976;2024-02-23T11:25:06;99254.16;;;20.63;46.20
48200;BME280;33990;44.602;10.976;2024-02-23T11:27:37;99251.47;;;20.63;46.28
48200;BME280;33990;44.602;10.976;2024-02-23T11:30:06;99249.63;;;20.64;46.13
48200;BME280;33990;44.602;10.976;2024-02-23T11:32:46;99255.84;;;20.64;46.17
48200;BME280;33990;44.602;10.976;2024-02-23T11:35:16;99259.56;;;20.63;46.15
48200;BME280;33990;44.602;10.976;2024-02-23T11:37:52;99258.72;;;20.63;46.31
48200;BME280;33990;44.602;10.976;2024-02-23T11:40:27;99265.94;;;20.62;46.19
48200;BME280;33990;44.602;10.976;2024-02-23T11:42:55;99271.34;;;20.62;46.38
48200;BME280;33990;44.602;10.976;2024-02-23T11:45:28;99274.84;;;20.63;46.27
48200;BME280;33990;44.602;10.976;2024-02-23T11:47:55;99272.31;;;20.61;46.27
48200;BME280;33990;44.602;10.976;2024-02-23T11:50:23;99265.94;;;20.62;46.38
48200;BME280;33990;44.602;10.976;2024-02-23T11:52:50;99257.88;;;20.62;46.27
48200;BME280;33990;44.602;10.976;2024-02-23T11:55:21;99253.50;;;20.61;46.31
48200;BME280;33990;44.602;10.976;2024-02-23T11:57:51;99262.41;;;20.62;46.22
48200;BME280;33990;44.602;10.976;2024-02-23T12:00:31;99255.19;;;20.62;46.42
48200;BME280;33990;44.602;10.976;2024-02-23T12:02:59;99251.66;;;20.62;46.21
48200;BME280;33990;44.602;10.976;2024-02-23T12:05:27;99252.31;;;20.64;46.23
48200;BME280;33990;44.602;10.976;2024-02-23T12:07:55;99232.66;;;20.63;46.30
48200;BME280;33990;44.602;10.976;2024-02-23T12:10:24;99231.00;;;20.62;46.24
48200;BME280;33990;44.602;10.976;2024-02-23T12:12:53;99235.34;;;20.63;46.23
48200;BME280;33990;44.602;10.976;2024-02-23T12:15:21;99238.88;;;20.64;46.35
48200;BME280;33990;44.602;10.976;2024-02-23T12:17:49;99229.78;;;20.65;46.35
48200;BME280;33990;44.602;10.976;2024-02-23T12:20:17;99227.94;;;20.65;46.26
48200;BME280;33990;44.602;10.976;2024-02-23T12:22:45;99233.31;;;20.65;46.15
48200;BME280;33990;44.602;10.976;2024-02-23T12:25:12;99221.72;;;20.65;46.35
48200;BME280;33990;44.602;10.976;2024-02-23T12:27:41;99223.38;;;20.66;46.20
48200;BME280;33990;44.602;10.976;2024-02-23T12:30:15;99236.81;;;20.66;46.24
48200;BME280;33990;44.602;10.976;2024-02-23T12:32:43;99244.06;;;20.65;46.49
48200;BME280;33990;44.602;10.976;2024-02-23T12:35:14;99254.66;;;20.67;46.34
48200;BME280;33990;44.602;10.976;2024-02-23T12:37:43;99250.28;;;20.66;46.11
48200;BME280;33990;44.602;10.976;2024-02-23T12:40:11;99244.88;;;20.66;46.25
48200;BME280;33990;44.602;10.976;2024-02-23T12:42:40;99247.59;;;20.66;46.31
48200;BME280;33990;44.602;10.976;2024-02-23T12:45:07;99244.88;;;20.66;46.38
48200;BME280;33990;44.602;10.976;2024-02-23T12:47:35;99244.06;;;20.65;46.40
48200;BME280;33990;44.602;10.976;2024-02-23T12:50:02;99223.38;;;20.66;46.24
48200;BME280;33990;44.602;10.976;2024-02-23T12:52:30;99233.31;;;20.65;46.21
48200;BME280;33990;44.602;10.976;2024-02-23T12:54:57;99232.31;;;20.66;46.35